createdAt,value
2018-05-18T00:00:57.161Z,8.70
2018-05-18T00:03:24.703Z,8.40
2018-05-18T00:05:53.054Z,8.30
2018-05-18T00:08:21.193Z,8.20
2018-05-18T00:10:48.754Z,8.30
2018-05-18T00:13:16.303Z,8.20
2018-05-18T00:15:43.832Z,8.30
2018-05-18T00:18:11.393Z,8.30
2018-05-18T00:20:38.914Z,8.20
2018-05-18T00:23:06.510Z,8.20
2018-05-18T00:25:34.059Z,8.20
2018-05-18T00:28:01.628Z,8.20
2018-05-18T00:30:29.513Z,8.20
2018-05-18T00:35:20.814Z,8.40
2018-05-18T00:37:48.478Z,8.20
2018-05-18T00:40:16.063Z,8.20
2018-05-18T00:42:43.627Z,8.20
2018-05-18T00:45:11.145Z,8.10
2018-05-18T00:47:38.724Z,8.20
2018-05-18T00:50:06.254Z,8.00
2018-05-18T00:52:34.712Z,8.00
2018-05-18T00:55:02.264Z,8.40
2018-05-18T00:57:29.823Z,8.00
2018-05-18T00:59:57.340Z,8.10
2018-05-18T01:02:25.724Z,8.10
2018-05-18T01:04:53.258Z,8.00
2018-05-18T01:07:20.820Z,8.30
2018-05-18T01:09:48.382Z,8.10
2018-05-18T01:12:16.420Z,8.20
2018-05-18T01:14:44.722Z,8.30
2018-05-18T01:17:12.321Z,8.30
2018-05-18T01:19:39.854Z,8.10
2018-05-18T01:22:07.428Z,8.20
2018-05-18T01:24:34.988Z,8.20
2018-05-18T01:27:02.521Z,8.20
2018-05-18T01:29:30.121Z,8.20
2018-05-18T01:31:57.630Z,8.20
2018-05-18T01:34:25.219Z,8.20
2018-05-18T01:36:52.770Z,8.10
2018-05-18T01:39:21.056Z,8.20
2018-05-18T01:41:48.612Z,8.10
2018-05-18T01:44:16.157Z,8.20
2018-05-18T01:46:43.736Z,8.10
2018-05-18T01:49:11.364Z,8.00
2018-05-18T01:51:39.189Z,8.30
2018-05-18T01:54:07.531Z,7.90
2018-05-18T01:56:35.066Z,7.90
2018-05-18T01:59:03.712Z,7.90
2018-05-18T02:01:31.599Z,7.90
2018-05-18T02:03:59.165Z,7.90
2018-05-18T02:06:26.686Z,8.00
2018-05-18T02:08:55.858Z,8.00
2018-05-18T02:11:23.417Z,8.10
2018-05-18T02:13:51.130Z,8.00
2018-05-18T02:16:18.690Z,7.90
2018-05-18T02:18:46.307Z,8.20
2018-05-18T02:21:13.823Z,8.00
2018-05-18T02:23:41.417Z,8.10
2018-05-18T02:26:09.713Z,8.30
2018-05-18T02:28:37.293Z,8.20
2018-05-18T02:31:04.827Z,8.20
2018-05-18T02:33:32.389Z,8.20
2018-05-18T02:35:59.925Z,8.20
2018-05-18T02:38:27.502Z,8.20
2018-05-18T02:40:55.010Z,8.40
2018-05-18T02:43:23.348Z,8.50
2018-05-18T02:45:51.111Z,8.60
2018-05-18T02:48:18.631Z,8.60
2018-05-18T02:50:46.455Z,9.00
2018-05-18T02:53:14.327Z,8.80
2018-05-18T02:55:42.122Z,9.00
2018-05-18T02:58:09.949Z,8.80
2018-05-18T03:00:37.534Z,8.60
2018-05-18T03:03:05.775Z,9.00
2018-05-18T03:05:34.153Z,8.90
2018-05-18T03:08:02.560Z,8.90
2018-05-18T03:10:30.141Z,8.90
2018-05-18T03:12:57.706Z,8.90
2018-05-18T03:15:25.272Z,9.20
2018-05-18T03:17:52.838Z,9.00
2018-05-18T03:20:21.164Z,9.40
2018-05-18T03:22:49.689Z,9.20
2018-05-18T03:25:17.893Z,9.20
2018-05-18T03:27:45.490Z,9.20
2018-05-18T03:30:13.037Z,9.20
2018-05-18T03:32:40.561Z,9.20
2018-05-18T03:35:08.127Z,9.20
2018-05-18T03:37:35.690Z,9.20
2018-05-18T03:40:03.639Z,9.20
2018-05-18T03:42:31.165Z,9.20
2018-05-18T03:44:58.925Z,9.20
2018-05-18T03:47:26.460Z,9.20
2018-05-18T03:49:54.885Z,9.20
2018-05-18T03:52:22.401Z,9.20
2018-05-18T03:54:53.483Z,9.60
2018-05-18T03:57:22.271Z,9.60
2018-05-18T03:59:49.823Z,9.50
2018-05-18T04:02:30.297Z,9.50
2018-05-18T04:05:09.758Z,9.40
2018-05-18T04:07:49.074Z,9.20
2018-05-18T04:10:16.676Z,9.20
2018-05-18T04:12:44.182Z,9.40
2018-05-18T04:15:11.697Z,9.30
2018-05-18T04:17:39.261Z,9.60
2018-05-18T04:20:06.821Z,9.60
2018-05-18T04:22:34.399Z,9.60
2018-05-18T04:25:02.061Z,9.30
2018-05-18T04:27:29.629Z,9.40
2018-05-18T04:29:57.165Z,9.20
2018-05-18T04:32:24.770Z,9.20
2018-05-18T04:34:52.300Z,9.20
2018-05-18T04:37:20.067Z,9.30
2018-05-18T04:39:47.666Z,9.60
2018-05-18T04:42:16.061Z,9.50
2018-05-18T04:44:44.335Z,9.40
2018-05-18T04:47:11.893Z,9.50
2018-05-18T04:49:39.419Z,9.70
2018-05-18T04:52:07.795Z,9.50
2018-05-18T04:54:35.336Z,9.60
2018-05-18T04:57:03.543Z,9.70
2018-05-18T04:59:32.664Z,9.60
2018-05-18T05:02:00.231Z,9.60
2018-05-18T05:04:27.751Z,9.60
2018-05-18T05:06:55.338Z,9.70
2018-05-18T05:09:22.964Z,9.50
2018-05-18T05:11:51.301Z,9.70
2018-05-18T05:14:18.863Z,9.50
2018-05-18T05:16:46.395Z,9.70
2018-05-18T05:19:14.032Z,9.50
2018-05-18T05:21:41.576Z,9.70
2018-05-18T05:24:09.924Z,9.50
2018-05-18T05:26:37.468Z,9.60
2018-05-18T05:29:05.060Z,9.90
2018-05-18T05:31:32.616Z,9.80
2018-05-18T05:34:01.225Z,9.90
2018-05-18T05:36:29.618Z,10.00
2018-05-18T05:38:57.348Z,10.00
2018-05-18T05:41:24.938Z,9.80
2018-05-18T05:43:52.452Z,9.80
2018-05-18T05:46:20.040Z,9.90
2018-05-18T05:48:47.574Z,10.00
2018-05-18T05:51:17.912Z,10.10
2018-05-18T05:53:48.298Z,9.90
2018-05-18T05:56:17.499Z,10.00
2018-05-18T05:58:45.790Z,10.00
2018-05-18T06:01:14.168Z,10.00
2018-05-18T06:03:41.708Z,9.80
2018-05-18T06:06:09.232Z,9.80
2018-05-18T06:08:36.813Z,10.10
2018-05-18T06:11:05.565Z,10.30
2018-05-18T06:13:33.126Z,10.10
2018-05-18T06:16:00.673Z,10.50
2018-05-18T06:18:28.288Z,10.30
2018-05-18T06:20:55.829Z,10.20
2018-05-18T06:23:23.445Z,10.20
2018-05-18T06:25:51.181Z,10.70
2018-05-18T06:28:19.466Z,10.30
2018-05-18T06:30:47.026Z,10.20
2018-05-18T06:33:14.582Z,10.60
2018-05-18T06:35:42.156Z,10.60
2018-05-18T06:38:09.732Z,10.60
2018-05-18T06:40:37.321Z,10.50
2018-05-18T06:43:05.140Z,10.60
2018-05-18T06:45:32.705Z,10.70
2018-05-18T06:48:00.251Z,10.80
2018-05-18T06:50:27.933Z,10.70
2018-05-18T06:52:55.589Z,10.60
2018-05-18T06:55:23.967Z,10.60
2018-05-18T06:57:51.538Z,10.60
2018-05-18T07:00:19.054Z,10.60
2018-05-18T07:02:46.618Z,10.60
2018-05-18T07:05:14.285Z,10.70
2018-05-18T07:07:41.856Z,10.70
2018-05-18T07:10:09.420Z,10.70
2018-05-18T07:12:36.951Z,10.90
2018-05-18T07:15:04.534Z,11.00
2018-05-18T07:17:32.122Z,10.90
2018-05-18T07:19:59.669Z,10.90
2018-05-18T07:22:27.270Z,10.90
2018-05-18T07:24:55.026Z,11.00
2018-05-18T07:27:22.560Z,11.00
2018-05-18T07:29:50.148Z,10.90
2018-05-18T07:32:17.745Z,11.20
2018-05-18T07:34:45.324Z,11.20
2018-05-18T07:37:12.908Z,11.40
2018-05-18T07:39:41.199Z,11.40
2018-05-18T07:42:08.782Z,11.30
2018-05-18T07:44:36.329Z,11.50
2018-05-18T07:47:04.166Z,11.40
2018-05-18T07:49:31.724Z,11.20
2018-05-18T07:51:59.310Z,11.20
2018-05-18T07:54:26.828Z,11.20
2018-05-18T07:56:54.954Z,11.60
2018-05-18T07:59:22.579Z,11.40
2018-05-18T08:01:51.080Z,11.60
2018-05-18T08:04:18.639Z,11.70
2018-05-18T08:06:46.194Z,11.80
2018-05-18T08:09:14.696Z,11.80
2018-05-18T08:11:42.216Z,11.80
2018-05-18T08:14:11.012Z,11.90
2018-05-18T08:16:38.616Z,11.70
2018-05-18T08:19:06.311Z,11.70
2018-05-18T08:21:34.661Z,11.80
2018-05-18T08:24:02.411Z,11.70
2018-05-18T08:26:30.003Z,11.80
2018-05-18T08:29:10.231Z,11.80
2018-05-18T08:31:37.823Z,11.60
2018-05-18T08:34:05.363Z,11.70
2018-05-18T08:36:33.698Z,11.80
2018-05-18T08:39:01.253Z,11.80
2018-05-18T08:41:28.817Z,11.90
2018-05-18T08:43:56.353Z,11.90
2018-05-18T08:46:23.924Z,11.90
2018-05-18T08:48:51.953Z,12.00
2018-05-18T08:51:19.529Z,12.20
2018-05-18T08:53:47.113Z,12.10
2018-05-18T08:56:14.673Z,12.00
2018-05-18T08:58:42.247Z,12.00
2018-05-18T09:01:10.577Z,12.20
2018-05-18T09:03:38.172Z,12.10
2018-05-18T09:06:05.721Z,12.10
2018-05-18T09:08:33.263Z,12.20
2018-05-18T09:11:00.835Z,12.30
2018-05-18T09:13:29.241Z,12.50
2018-05-18T09:15:56.837Z,12.60
2018-05-18T09:18:24.422Z,12.50
2018-05-18T09:20:51.987Z,12.50
2018-05-18T09:23:19.561Z,12.50
2018-05-18T09:25:47.153Z,12.40
2018-05-18T09:28:14.673Z,12.60
2018-05-18T09:30:42.242Z,12.60
2018-05-18T09:33:10.653Z,12.30
2018-05-18T09:35:38.938Z,12.60
2018-05-18T09:38:07.320Z,12.30
2018-05-18T09:40:34.877Z,12.30
2018-05-18T09:43:02.465Z,12.20
2018-05-18T09:45:30.228Z,12.50
2018-05-18T09:47:57.806Z,12.60
2018-05-18T09:50:25.400Z,12.60
2018-05-18T09:52:52.996Z,12.60
2018-05-18T09:55:21.521Z,13.00
2018-05-18T09:57:49.226Z,12.70
2018-05-18T10:00:16.830Z,12.80
2018-05-18T10:02:44.380Z,12.80
2018-05-18T10:05:11.953Z,12.80
2018-05-18T10:07:40.256Z,12.70
2018-05-18T10:10:08.559Z,13.00
2018-05-18T10:12:36.142Z,13.30
2018-05-18T10:15:03.715Z,13.10
2018-05-18T10:17:31.282Z,13.30
2018-05-18T10:19:58.827Z,13.20
2018-05-18T10:22:26.409Z,13.10
2018-05-18T10:24:54.058Z,13.20
2018-05-18T10:27:22.367Z,13.30
2018-05-18T10:29:49.929Z,13.10
2018-05-18T10:32:17.552Z,13.20
2018-05-18T10:34:45.883Z,13.50
2018-05-18T10:37:13.404Z,13.70
2018-05-18T10:39:41.076Z,13.50
2018-05-18T10:42:08.559Z,13.70
2018-05-18T10:44:36.154Z,13.50
2018-05-18T10:47:03.985Z,13.50
2018-05-18T10:49:31.591Z,13.40
2018-05-18T10:51:59.069Z,13.40
2018-05-18T10:54:26.648Z,13.30
2018-05-18T10:56:54.236Z,13.40
2018-05-18T10:59:21.763Z,13.40
2018-05-18T11:01:50.167Z,13.60
2018-05-18T11:04:17.890Z,13.40
2018-05-18T11:06:45.455Z,13.60
2018-05-18T11:09:12.976Z,13.50
2018-05-18T11:11:42.263Z,13.40
2018-05-18T11:14:10.596Z,13.40
2018-05-18T11:16:38.188Z,13.40
2018-05-18T11:19:06.509Z,13.50
2018-05-18T11:21:35.539Z,13.80
2018-05-18T11:24:03.079Z,13.70
2018-05-18T11:26:30.646Z,13.60
2018-05-18T11:28:58.921Z,13.60
2018-05-18T11:31:26.578Z,13.70
2018-05-18T11:33:54.155Z,13.60
2018-05-18T11:36:22.640Z,13.70
2018-05-18T11:38:50.222Z,13.70
2018-05-18T11:41:17.770Z,13.50
2018-05-18T11:43:45.335Z,13.50
2018-05-18T11:46:12.887Z,13.60
2018-05-18T11:48:41.233Z,13.70
2018-05-18T11:51:08.806Z,13.40
2018-05-18T11:53:36.358Z,13.40
2018-05-18T11:56:03.934Z,13.40
2018-05-18T11:58:32.227Z,13.80
2018-05-18T12:01:00.594Z,13.70
2018-05-18T12:03:28.534Z,13.60
2018-05-18T12:05:56.059Z,13.60
2018-05-18T12:08:23.804Z,13.60
2018-05-18T12:10:51.254Z,13.80
2018-05-18T12:13:18.794Z,13.70
2018-05-18T12:15:46.377Z,13.90
2018-05-18T12:18:13.971Z,13.90
2018-05-18T12:20:41.493Z,13.60
2018-05-18T12:23:09.069Z,13.60
2018-05-18T12:25:36.659Z,13.40
2018-05-18T12:28:05.016Z,13.60
2018-05-18T12:30:32.562Z,13.40
2018-05-18T12:33:00.092Z,13.40
2018-05-18T12:35:27.695Z,13.60
2018-05-18T12:37:55.973Z,13.90
2018-05-18T12:40:23.557Z,13.80
2018-05-18T12:42:52.428Z,13.90
2018-05-18T12:45:21.368Z,14.00
2018-05-18T12:47:48.936Z,14.00
2018-05-18T12:50:16.509Z,13.90
2018-05-18T12:52:44.094Z,13.70
2018-05-18T12:55:11.681Z,13.60
2018-05-18T12:57:39.281Z,13.70
2018-05-18T13:00:06.796Z,13.80
2018-05-18T13:02:35.111Z,13.80
2018-05-18T13:05:02.693Z,13.40
2018-05-18T13:07:30.213Z,13.50
2018-05-18T13:09:57.789Z,13.60
2018-05-18T13:12:25.354Z,13.50
2018-05-18T13:14:52.898Z,13.30
2018-05-18T13:17:20.492Z,13.30
2018-05-18T13:19:48.036Z,13.00
2018-05-18T13:22:15.699Z,13.00
2018-05-18T13:24:43.330Z,13.00
2018-05-18T13:27:11.485Z,13.20
2018-05-18T13:29:39.011Z,13.30
2018-05-18T13:32:07.344Z,13.60
2018-05-18T13:34:35.168Z,13.70
2018-05-18T13:37:03.638Z,13.70
2018-05-18T13:39:31.258Z,13.70
2018-05-18T13:41:59.795Z,13.80
2018-05-18T13:44:27.378Z,13.80
2018-05-18T13:46:54.941Z,14.10
2018-05-18T13:49:22.528Z,13.80
2018-05-18T13:51:51.084Z,13.40
2018-05-18T13:54:18.634Z,13.60
2018-05-18T13:56:46.241Z,13.30
2018-05-18T13:59:14.589Z,13.30
2018-05-18T14:01:42.102Z,13.60
2018-05-18T14:04:09.692Z,13.40
2018-05-18T14:06:37.274Z,13.50
2018-05-18T14:09:09.407Z,13.60
2018-05-18T14:11:37.008Z,13.60
2018-05-18T14:14:05.311Z,13.30
2018-05-18T14:16:32.884Z,13.50
2018-05-18T14:19:00.461Z,13.30
2018-05-18T14:21:28.089Z,13.50
2018-05-18T14:23:55.673Z,13.60
2018-05-18T14:26:23.273Z,13.60
2018-05-18T14:28:50.843Z,13.50
2018-05-18T14:31:19.198Z,13.60
2018-05-18T14:33:47.489Z,13.00
2018-05-18T14:36:16.751Z,13.30
2018-05-18T14:38:44.293Z,13.40
2018-05-18T14:41:11.933Z,13.00
2018-05-18T14:43:39.493Z,13.00
2018-05-18T14:46:07.072Z,13.10
2018-05-18T14:48:34.919Z,13.00
2018-05-18T14:51:02.460Z,12.90
2018-05-18T14:53:30.325Z,13.00
2018-05-18T14:55:58.115Z,13.10
2018-05-18T14:58:25.672Z,13.00
2018-05-18T15:00:53.207Z,13.10
2018-05-18T15:03:20.757Z,13.00
2018-05-18T15:05:48.429Z,13.10
2018-05-18T15:08:15.957Z,13.00
2018-05-18T15:10:44.291Z,13.10
2018-05-18T15:13:11.850Z,13.20
2018-05-18T15:15:39.589Z,13.10
2018-05-18T15:18:07.160Z,13.00
2018-05-18T15:20:34.748Z,13.10
2018-05-18T15:23:02.277Z,13.40
2018-05-18T15:25:29.974Z,13.50
2018-05-18T15:27:57.690Z,13.60
2018-05-18T15:30:25.226Z,13.20
2018-05-18T15:32:52.839Z,13.10
2018-05-18T15:35:20.415Z,13.10
2018-05-18T15:37:48.769Z,13.00
2018-05-18T15:40:16.341Z,12.90
2018-05-18T15:42:43.961Z,12.70
2018-05-18T15:45:12.312Z,12.80
2018-05-18T15:47:39.923Z,12.60
2018-05-18T15:50:07.578Z,12.70
2018-05-18T15:52:35.945Z,12.50
2018-05-18T15:55:03.476Z,12.70
2018-05-18T15:57:31.108Z,12.90
2018-05-18T15:59:58.596Z,13.00
2018-05-18T16:02:27.126Z,13.10
2018-05-18T16:04:54.710Z,13.00
2018-05-18T16:07:22.276Z,13.10
2018-05-18T16:09:49.810Z,13.20
2018-05-18T16:12:18.141Z,13.00
2018-05-18T16:14:45.665Z,13.00
2018-05-18T16:17:14.180Z,12.90
2018-05-18T16:19:42.460Z,12.70
2018-05-18T16:22:10.078Z,12.70
2018-05-18T16:24:37.864Z,12.60
2018-05-18T16:27:05.522Z,12.40
2018-05-18T16:29:33.336Z,12.40
2018-05-18T16:32:01.698Z,12.50
2018-05-18T16:34:30.016Z,12.30
2018-05-18T16:36:57.597Z,12.30
2018-05-18T16:39:25.162Z,12.50
2018-05-18T16:41:52.748Z,12.30
2018-05-18T16:44:20.314Z,12.60
2018-05-18T16:46:47.903Z,12.60
2018-05-18T16:49:16.230Z,12.90
2018-05-18T16:51:44.169Z,13.20
2018-05-18T16:54:12.622Z,13.00
2018-05-18T16:56:40.249Z,13.00
2018-05-18T16:59:08.005Z,12.70
2018-05-18T17:01:35.725Z,12.70
2018-05-18T17:04:03.305Z,12.50
2018-05-18T17:06:30.940Z,12.30
2018-05-18T17:08:58.511Z,12.20
2018-05-18T17:11:26.075Z,12.00
2018-05-18T17:18:29.143Z,11.90
2018-05-18T17:20:56.794Z,11.80
2018-05-18T17:23:25.193Z,11.80
2018-05-18T17:25:52.775Z,11.80
2018-05-18T17:28:21.256Z,11.80
2018-05-18T17:30:49.740Z,11.90
2018-05-18T17:33:17.281Z,12.00
2018-05-18T17:35:44.897Z,12.00
2018-05-18T17:38:12.467Z,11.90
2018-05-18T17:40:41.029Z,12.00
2018-05-18T17:43:08.598Z,11.80
2018-05-18T17:45:36.964Z,11.90
2018-05-18T17:48:04.480Z,12.20
2018-05-18T17:50:32.037Z,12.00
2018-05-18T17:52:59.584Z,11.90
2018-05-18T17:55:27.163Z,11.90
2018-05-18T17:57:54.733Z,11.80
2018-05-18T18:00:22.266Z,11.80
2018-05-18T18:02:50.134Z,11.60
2018-05-18T18:05:17.679Z,11.60
2018-05-18T18:07:45.311Z,11.70
2018-05-18T18:10:12.800Z,11.70
2018-05-18T18:12:40.350Z,11.60
2018-05-18T18:15:07.893Z,11.70
2018-05-18T18:17:36.226Z,11.70
2018-05-18T18:20:03.808Z,11.70
2018-05-18T18:22:31.478Z,11.60
2018-05-18T18:24:58.935Z,11.30
2018-05-18T18:27:26.769Z,11.40
2018-05-18T18:29:55.869Z,11.40
2018-05-18T18:32:23.462Z,11.30
2018-05-18T18:34:51.348Z,11.10
2018-05-18T18:37:18.864Z,11.00
2018-05-18T18:39:47.275Z,11.00
2018-05-18T18:42:14.809Z,10.90
2018-05-18T18:44:42.401Z,11.10
2018-05-18T18:47:10.077Z,11.00
2018-05-18T18:49:37.883Z,11.00
2018-05-18T18:52:06.185Z,11.00
2018-05-18T18:54:33.788Z,11.10
2018-05-18T18:57:02.589Z,11.00
2018-05-18T18:59:31.534Z,11.10
2018-05-18T19:01:59.184Z,10.80
2018-05-18T19:04:26.744Z,11.00
2018-05-18T19:06:54.312Z,10.90
2018-05-18T19:09:21.956Z,10.90
2018-05-18T19:11:49.551Z,11.00
2018-05-18T19:14:17.117Z,10.80
2018-05-18T19:16:45.401Z,10.80
2018-05-18T19:19:13.033Z,10.90
2018-05-18T19:21:40.564Z,10.80
2018-05-18T19:24:08.505Z,10.80
2018-05-18T19:26:36.966Z,10.70
2018-05-18T19:29:04.610Z,10.80
2018-05-18T19:31:32.163Z,10.80
2018-05-18T19:33:59.755Z,11.00
2018-05-18T19:36:28.392Z,10.90
2018-05-18T19:38:55.982Z,11.00
2018-05-18T19:41:23.764Z,10.70
2018-05-18T19:43:53.055Z,11.00
2018-05-18T19:46:21.734Z,10.80
2018-05-18T19:48:49.326Z,10.80
2018-05-18T19:51:16.877Z,10.70
2018-05-18T19:53:44.528Z,10.70
2018-05-18T19:56:12.953Z,10.90
2018-05-18T19:58:40.824Z,10.80
2018-05-18T20:01:08.400Z,10.80
2018-05-18T20:03:36.014Z,10.80
2018-05-18T20:06:04.916Z,10.70
2018-05-18T20:08:32.489Z,10.70
2018-05-18T20:11:00.061Z,10.80
2018-05-18T20:13:27.664Z,10.60
2018-05-18T20:15:55.230Z,10.70
2018-05-18T20:18:23.024Z,10.70
2018-05-18T20:20:50.649Z,10.50
2018-05-18T20:23:18.183Z,10.40
2018-05-18T20:25:46.568Z,10.10
2018-05-18T20:28:14.905Z,10.10
2018-05-18T20:30:42.517Z,10.30
2018-05-18T20:33:10.086Z,9.90
2018-05-18T20:35:37.619Z,10.00
2018-05-18T20:38:06.187Z,9.90
2018-05-18T20:40:33.744Z,10.00
2018-05-18T20:43:01.298Z,10.00
2018-05-18T20:45:28.923Z,10.00
2018-05-18T20:47:56.452Z,10.00
2018-05-18T20:50:24.015Z,9.80
2018-05-18T20:52:51.572Z,9.60
2018-05-18T20:55:19.143Z,9.60
2018-05-18T20:57:46.702Z,9.60
2018-05-18T21:00:14.447Z,9.50
2018-05-18T21:02:42.017Z,9.60
2018-05-18T21:05:09.630Z,9.60
2018-05-18T21:07:37.187Z,9.50
2018-05-18T21:10:05.520Z,9.30
2018-05-18T21:12:33.079Z,9.50
2018-05-18T21:15:00.657Z,9.40
2018-05-18T21:17:28.193Z,9.20
2018-05-18T21:19:55.749Z,9.20
2018-05-18T21:22:23.353Z,9.00
2018-05-18T21:24:50.928Z,9.30
2018-05-18T21:27:18.489Z,9.30
2018-05-18T21:29:46.044Z,9.00
2018-05-18T21:32:13.620Z,8.90
2018-05-18T21:34:41.217Z,8.90
2018-05-18T21:37:09.797Z,8.90
2018-05-18T21:39:37.356Z,8.80
2018-05-18T21:42:05.642Z,9.00
2018-05-18T21:44:33.177Z,8.70
2018-05-18T21:47:00.753Z,8.60
2018-05-18T21:49:29.930Z,8.60
2018-05-18T21:51:57.504Z,8.50
2018-05-18T21:54:26.719Z,8.70
2018-05-18T21:56:55.048Z,8.70
2018-05-18T21:59:22.607Z,8.60
2018-05-18T22:01:50.143Z,8.80
2018-05-18T22:04:17.689Z,8.50
2018-05-18T22:06:45.240Z,8.50
2018-05-18T22:09:12.792Z,8.60
2018-05-18T22:11:40.332Z,8.20
2018-05-18T22:14:08.743Z,8.30
2018-05-18T22:16:36.259Z,8.20
2018-05-18T22:19:04.917Z,8.30
2018-05-18T22:21:32.504Z,8.20
2018-05-18T22:24:00.832Z,8.30
2018-05-18T22:26:28.356Z,8.20
2018-05-18T22:28:56.165Z,8.20
2018-05-18T22:31:23.706Z,8.20
2018-05-18T22:33:52.207Z,8.30
2018-05-18T22:36:19.785Z,8.30
2018-05-18T22:38:47.363Z,8.20
2018-05-18T22:41:15.699Z,8.30
2018-05-18T22:43:43.239Z,8.20
2018-05-18T22:46:10.797Z,8.20
2018-05-18T22:48:38.405Z,8.20
2018-05-18T22:51:06.192Z,8.20
2018-05-18T22:53:33.775Z,8.20
2018-05-18T22:56:01.315Z,8.30
2018-05-18T22:58:28.887Z,8.20
2018-05-18T23:00:56.433Z,8.30
2018-05-18T23:03:24.018Z,8.20
2018-05-18T23:05:51.552Z,8.30
2018-05-18T23:08:19.149Z,8.30
2018-05-18T23:10:46.727Z,8.40
2018-05-18T23:13:14.269Z,8.60
2018-05-18T23:15:42.641Z,8.60
2018-05-18T23:18:11.004Z,8.50
2018-05-18T23:20:38.536Z,8.70
2018-05-18T23:23:06.227Z,8.60
2018-05-18T23:25:33.766Z,8.50
2018-05-18T23:28:01.336Z,8.80
2018-05-18T23:30:28.891Z,9.00
2018-05-18T23:32:56.424Z,8.90
2018-05-18T23:35:25.017Z,8.80
2018-05-18T23:37:52.584Z,9.00
2018-05-18T23:40:20.212Z,8.90
2018-05-18T23:42:47.976Z,8.80
2018-05-18T23:45:16.464Z,8.80
2018-05-18T23:47:44.065Z,8.90
2018-05-18T23:50:11.651Z,8.80
2018-05-18T23:52:39.950Z,9.00
2018-05-18T23:55:07.532Z,8.90
2018-05-18T23:57:35.538Z,8.90
